sensor_id;sensor_type;location;lat;lon;timestamp;P1;durP1;ratioP1;P2;durP2;ratioP2
20621;SDS011;10470;42.670;23.354;2022-07-01T00:00:47;6.87;;;3.90;;
20621;SDS011;10470;42.670;23.354;2022-07-01T00:03:12;6.83;;;3.90;;
20621;SDS011;10470;42.670;23.354;2022-07-01T00:05:38;4.80;;;3.97;;
20621;SDS011;10470;42.670;23.354;2022-07-01T00:08:03;5.40;;;4.00;;
20621;SDS011;10470;42.670;23.354;2022-07-01T00:10:29;6.37;;;4.10;;
20621;SDS011;10470;42.670;23.354;2022-07-01T00:12:55;5.40;;;4.20;;
20621;SDS011;10470;42.670;23.354;2022-07-01T00:15:20;8.07;;;4.30;;
20621;SDS011;10470;42.670;23.354;2022-07-01T00:17:47;5.00;;;4.03;;
20621;SDS011;10470;42.670;23.354;2022-07-01T00:20:13;5.73;;;4.00;;
20621;SDS011;10470;42.670;23.354;2022-07-01T00:22:40;6.53;;;3.67;;
20621;SDS011;10470;42.670;23.354;2022-07-01T00:25:06;3.73;;;3.40;;
20621;SDS011;10470;42.670;23.354;2022-07-01T00:27:32;4.33;;;3.70;;
20621;SDS011;10470;42.670;23.354;2022-07-01T00:29:57;6.23;;;3.87;;
20621;SDS011;10470;42.670;23.354;2022-07-01T00:32:23;4.43;;;3.63;;
20621;SDS011;10470;42.670;23.354;2022-07-01T00:34:49;4.33;;;3.63;;
20621;SDS011;10470;42.670;23.354;2022-07-01T00:37:14;8.83;;;3.63;;
20621;SDS011;10470;42.670;23.354;2022-07-01T00:39:40;5.37;;;3.43;;
20621;SDS011;10470;42.670;23.354;2022-07-01T00:42:05;4.90;;;3.43;;
20621;SDS011;10470;42.670;23.354;2022-07-01T00:44:31;5.10;;;3.90;;
20621;SDS011;10470;42.670;23.354;2022-07-01T00:46:58;6.63;;;4.03;;
20621;SDS011;10470;42.670;23.354;2022-07-01T00:49:27;6.53;;;3.73;;
20621;SDS011;10470;42.670;23.354;2022-07-01T00:51:53;7.47;;;3.70;;
20621;SDS011;10470;42.670;23.354;2022-07-01T00:54:20;5.77;;;3.77;;
20621;SDS011;10470;42.670;23.354;2022-07-01T00:56:46;5.13;;;3.70;;
20621;SDS011;10470;42.670;23.354;2022-07-01T00:59:13;6.03;;;3.80;;
20621;SDS011;10470;42.670;23.354;2022-07-01T01:01:39;6.77;;;3.57;;
20621;SDS011;10470;42.670;23.354;2022-07-01T01:04:05;7.27;;;3.70;;
20621;SDS011;10470;42.670;23.354;2022-07-01T01:06:31;5.93;;;3.70;;
20621;SDS011;10470;42.670;23.354;2022-07-01T01:08:57;4.47;;;3.83;;
20621;SDS011;10470;42.670;23.354;2022-07-01T01:11:22;8.60;;;3.63;;
20621;SDS011;10470;42.670;23.354;2022-07-01T01:13:48;4.80;;;3.80;;
20621;SDS011;10470;42.670;23.354;2022-07-01T01:16:21;5.33;;;3.90;;
20621;SDS011;10470;42.670;23.354;2022-07-01T01:18:47;8.07;;;3.77;;
20621;SDS011;10470;42.670;23.354;2022-07-01T01:21:14;4.60;;;3.90;;
20621;SDS011;10470;42.670;23.354;2022-07-01T01:23:40;6.60;;;4.13;;
20621;SDS011;10470;42.670;23.354;2022-07-01T01:26:16;6.83;;;4.20;;
20621;SDS011;10470;42.670;23.354;2022-07-01T01:28:43;4.77;;;4.20;;
20621;SDS011;10470;42.670;23.354;2022-07-01T01:31:09;4.87;;;4.00;;
20621;SDS011;10470;42.670;23.354;2022-07-01T01:33:36;4.63;;;4.13;;
20621;SDS011;10470;42.670;23.354;2022-07-01T01:36:02;6.47;;;4.07;;
20621;SDS011;10470;42.670;23.354;2022-07-01T01:38:27;4.70;;;4.17;;
20621;SDS011;10470;42.670;23.354;2022-07-01T01:40:53;6.67;;;4.37;;
20621;SDS011;10470;42.670;23.354;2022-07-01T01:43:20;6.20;;;4.30;;
20621;SDS011;10470;42.670;23.354;2022-07-01T01:45:46;7.73;;;4.43;;
20621;SDS011;10470;42.670;23.354;2022-07-01T01:48:11;5.70;;;4.03;;
20621;SDS011;10470;42.670;23.354;2022-07-01T01:50:37;7.53;;;4.30;;
20621;SDS011;10470;42.670;23.354;2022-07-01T01:53:02;4.77;;;4.20;;
20621;SDS011;10470;42.670;23.354;2022-07-01T01:55:28;5.53;;;4.10;;
20621;SDS011;10470;42.670;23.354;2022-07-01T01:57:53;5.80;;;4.33;;
20621;SDS011;10470;42.670;23.354;2022-07-01T02:00:18;7.53;;;4.60;;
20621;SDS011;10470;42.670;23.354;2022-07-01T02:02:44;8.43;;;4.50;;
20621;SDS011;10470;42.670;23.354;2022-07-01T02:05:10;7.67;;;4.77;;
20621;SDS011;10470;42.670;23.354;2022-07-01T02:07:37;10.27;;;4.60;;
20621;SDS011;10470;42.670;23.354;2022-07-01T02:10:03;7.83;;;4.57;;
20621;SDS011;10470;42.670;23.354;2022-07-01T02:12:29;7.43;;;4.63;;
20621;SDS011;10470;42.670;23.354;2022-07-01T02:14:54;5.17;;;4.13;;
20621;SDS011;10470;42.670;23.354;2022-07-01T02:17:20;8.83;;;4.67;;
20621;SDS011;10470;42.670;23.354;2022-07-01T02:19:45;6.03;;;4.67;;
20621;SDS011;10470;42.670;23.354;2022-07-01T02:22:11;5.90;;;4.60;;
20621;SDS011;10470;42.670;23.354;2022-07-01T02:24:36;5.37;;;4.77;;
20621;SDS011;10470;42.670;23.354;2022-07-01T02:27:02;7.00;;;4.80;;
20621;SDS011;10470;42.670;23.354;2022-07-01T02:29:28;7.17;;;4.90;;
20621;SDS011;10470;42.670;23.354;2022-07-01T02:31:53;6.50;;;4.80;;
20621;SDS011;10470;42.670;23.354;2022-07-01T02:34:19;8.40;;;5.17;;
20621;SDS011;10470;42.670;23.354;2022-07-01T02:36:44;8.47;;;4.97;;
20621;SDS011;10470;42.670;23.354;2022-07-01T02:39:09;6.83;;;5.07;;
20621;SDS011;10470;42.670;23.354;2022-07-01T02:41:35;6.60;;;5.50;;
20621;SDS011;10470;42.670;23.354;2022-07-01T02:44:20;7.43;;;5.40;;
20621;SDS011;10470;42.670;23.354;2022-07-01T02:46:46;9.27;;;4.97;;
20621;SDS011;10470;42.670;23.354;2022-07-01T02:49:11;7.53;;;5.43;;
20621;SDS011;10470;42.670;23.354;2022-07-01T02:51:37;7.13;;;5.73;;
20621;SDS011;10470;42.670;23.354;2022-07-01T02:54:02;8.40;;;6.03;;
20621;SDS011;10470;42.670;23.354;2022-07-01T02:56:30;6.97;;;5.80;;
20621;SDS011;10470;42.670;23.354;2022-07-01T02:58:55;9.80;;;6.30;;
20621;SDS011;10470;42.670;23.354;2022-07-01T03:01:21;10.30;;;6.00;;
20621;SDS011;10470;42.670;23.354;2022-07-01T03:03:46;7.17;;;5.97;;
20621;SDS011;10470;42.670;23.354;2022-07-01T03:06:12;8.63;;;6.00;;
20621;SDS011;10470;42.670;23.354;2022-07-01T03:08:37;8.93;;;6.90;;
20621;SDS011;10470;42.670;23.354;2022-07-01T03:11:03;6.87;;;6.23;;
20621;SDS011;10470;42.670;23.354;2022-07-01T03:13:28;7.80;;;6.37;;
20621;SDS011;10470;42.670;23.354;2022-07-01T03:15:54;7.83;;;6.60;;
20621;SDS011;10470;42.670;23.354;2022-07-01T03:18:19;9.97;;;6.77;;
20621;SDS011;10470;42.670;23.354;2022-07-01T03:20:45;9.37;;;7.13;;
20621;SDS011;10470;42.670;23.354;2022-07-01T03:23:10;10.33;;;6.60;;
20621;SDS011;10470;42.670;23.354;2022-07-01T03:25:35;10.57;;;6.73;;
20621;SDS011;10470;42.670;23.354;2022-07-01T03:28:01;8.27;;;7.00;;
20621;SDS011;10470;42.670;23.354;2022-07-01T03:30:28;8.53;;;6.90;;
20621;SDS011;10470;42.670;23.354;2022-07-01T03:32:53;9.97;;;6.93;;
20621;SDS011;10470;42.670;23.354;2022-07-01T03:35:19;8.03;;;6.67;;
20621;SDS011;10470;42.670;23.354;2022-07-01T03:38:03;9.80;;;6.80;;
20621;SDS011;10470;42.670;23.354;2022-07-01T03:40:29;9.63;;;6.90;;
20621;SDS011;10470;42.670;23.354;2022-07-01T03:42:55;12.90;;;6.83;;
20621;SDS011;10470;42.670;23.354;2022-07-01T03:45:21;7.00;;;6.30;;
20621;SDS011;10470;42.670;23.354;2022-07-01T03:47:47;10.43;;;6.57;;
20621;SDS011;10470;42.670;23.354;2022-07-01T03:50:14;8.43;;;6.27;;
20621;SDS011;10470;42.670;23.354;2022-07-01T03:52:40;13.73;;;6.63;;
20621;SDS011;10470;42.670;23.354;2022-07-01T03:55:08;8.43;;;6.40;;
20621;SDS011;10470;42.670;23.354;2022-07-01T03:57:34;11.77;;;6.97;;
20621;SDS011;10470;42.670;23.354;2022-07-01T03:59:59;9.37;;;7.00;;
20621;SDS011;10470;42.670;23.354;2022-07-01T04:02:25;8.80;;;6.57;;
20621;SDS011;10470;42.670;23.354;2022-07-01T04:04:50;8.60;;;6.40;;
20621;SDS011;10470;42.670;23.354;2022-07-01T04:07:16;11.73;;;6.90;;
20621;SDS011;10470;42.670;23.354;2022-07-01T04:09:41;9.63;;;6.40;;
20621;SDS011;10470;42.670;23.354;2022-07-01T04:12:08;11.37;;;7.20;;
20621;SDS011;10470;42.670;23.354;2022-07-01T04:14:36;9.13;;;7.27;;
20621;SDS011;10470;42.670;23.354;2022-07-01T04:17:02;10.87;;;7.20;;
20621;SDS011;10470;42.670;23.354;2022-07-01T04:19:27;10.03;;;7.00;;
20621;SDS011;10470;42.670;23.354;2022-07-01T04:21:53;10.90;;;7.83;;
20621;SDS011;10470;42.670;23.354;2022-07-01T04:24:37;11.70;;;7.93;;
20621;SDS011;10470;42.670;23.354;2022-07-01T04:27:02;9.83;;;7.33;;
20621;SDS011;10470;42.670;23.354;2022-07-01T04:29:28;10.23;;;7.70;;
20621;SDS011;10470;42.670;23.354;2022-07-01T04:31:54;9.43;;;7.60;;
20621;SDS011;10470;42.670;23.354;2022-07-01T04:34:21;11.67;;;7.50;;
20621;SDS011;10470;42.670;23.354;2022-07-01T04:36:47;8.40;;;7.47;;
20621;SDS011;10470;42.670;23.354;2022-07-01T04:39:12;9.23;;;7.23;;
20621;SDS011;10470;42.670;23.354;2022-07-01T04:41:37;11.30;;;7.87;;
20621;SDS011;10470;42.670;23.354;2022-07-01T04:44:22;9.80;;;7.77;;
20621;SDS011;10470;42.670;23.354;2022-07-01T04:46:47;9.83;;;7.80;;
20621;SDS011;10470;42.670;23.354;2022-07-01T04:49:13;10.87;;;7.43;;
20621;SDS011;10470;42.670;23.354;2022-07-01T04:51:39;12.80;;;7.73;;
20621;SDS011;10470;42.670;23.354;2022-07-01T04:54:07;13.03;;;8.40;;
20621;SDS011;10470;42.670;23.354;2022-07-01T04:56:34;11.93;;;8.13;;
20621;SDS011;10470;42.670;23.354;2022-07-01T04:59:01;12.63;;;8.20;;
20621;SDS011;10470;42.670;23.354;2022-07-01T05:01:27;11.80;;;8.13;;
20621;SDS011;10470;42.670;23.354;2022-07-01T05:03:56;15.43;;;11.37;;
20621;SDS011;10470;42.670;23.354;2022-07-01T05:06:22;12.07;;;8.33;;
20621;SDS011;10470;42.670;23.354;2022-07-01T05:08:48;20.93;;;18.20;;
20621;SDS011;10470;42.670;23.354;2022-07-01T05:11:13;14.67;;;11.40;;
20621;SDS011;10470;42.670;23.354;2022-07-01T05:13:39;14.07;;;9.53;;
20621;SDS011;10470;42.670;23.354;2022-07-01T05:16:04;13.50;;;9.33;;
20621;SDS011;10470;42.670;23.354;2022-07-01T05:18:31;13.90;;;8.60;;
20621;SDS011;10470;42.670;23.354;2022-07-01T05:21:15;12.10;;;7.97;;
20621;SDS011;10470;42.670;23.354;2022-07-01T05:24:00;15.77;;;8.60;;
20621;SDS011;10470;42.670;23.354;2022-07-01T05:26:25;13.77;;;8.43;;
20621;SDS011;10470;42.670;23.354;2022-07-01T05:28:51;14.47;;;9.23;;
20621;SDS011;10470;42.670;23.354;2022-07-01T05:31:18;16.57;;;10.57;;
20621;SDS011;10470;42.670;23.354;2022-07-01T05:33:44;15.00;;;10.03;;
20621;SDS011;10470;42.670;23.354;2022-07-01T05:36:09;16.20;;;11.20;;
20621;SDS011;10470;42.670;23.354;2022-07-01T05:38:35;14.93;;;10.20;;
20621;SDS011;10470;42.670;23.354;2022-07-01T05:41:02;16.57;;;10.77;;
20621;SDS011;10470;42.670;23.354;2022-07-01T05:43:27;16.00;;;10.10;;
20621;SDS011;10470;42.670;23.354;2022-07-01T05:45:54;15.53;;;10.17;;
20621;SDS011;10470;42.670;23.354;2022-07-01T05:48:19;26.67;;;18.93;;
20621;SDS011;10470;42.670;23.354;2022-07-01T05:50:45;16.97;;;12.40;;
20621;SDS011;10470;42.670;23.354;2022-07-01T05:53:10;14.13;;;10.53;;
20621;SDS011;10470;42.670;23.354;2022-07-01T05:55:36;14.03;;;10.33;;
20621;SDS011;10470;42.670;23.354;2022-07-01T05:58:01;15.63;;;10.40;;
20621;SDS011;10470;42.670;23.354;2022-07-01T06:00:27;20.80;;;10.07;;
20621;SDS011;10470;42.670;23.354;2022-07-01T06:02:53;14.73;;;10.30;;
20621;SDS011;10470;42.670;23.354;2022-07-01T06:05:19;14.23;;;9.60;;
20621;SDS011;10470;42.670;23.354;2022-07-01T06:07:44;13.30;;;9.77;;
20621;SDS011;10470;42.670;23.354;2022-07-01T06:10:10;17.20;;;10.47;;
20621;SDS011;10470;42.670;23.354;2022-07-01T06:12:39;18.03;;;10.00;;
20621;SDS011;10470;42.670;23.354;2022-07-01T06:15:06;15.00;;;10.70;;
20621;SDS011;10470;42.670;23.354;2022-07-01T06:17:36;15.57;;;10.60;;
20621;SDS011;10470;42.670;23.354;2022-07-01T06:20:02;13.83;;;10.20;;
20621;SDS011;10470;42.670;23.354;2022-07-01T06:22:29;13.80;;;9.83;;
20621;SDS011;10470;42.670;23.354;2022-07-01T06:24:54;17.20;;;9.90;;
20621;SDS011;10470;42.670;23.354;2022-07-01T06:27:20;16.37;;;9.40;;
20621;SDS011;10470;42.670;23.354;2022-07-01T06:29:45;14.20;;;10.17;;
20621;SDS011;10470;42.670;23.354;2022-07-01T06:32:11;11.87;;;8.87;;
20621;SDS011;10470;42.670;23.354;2022-07-01T06:34:36;14.30;;;9.60;;
20621;SDS011;10470;42.670;23.354;2022-07-01T06:37:02;17.23;;;9.00;;
20621;SDS011;10470;42.670;23.354;2022-07-01T06:39:28;16.60;;;9.53;;
20621;SDS011;10470;42.670;23.354;2022-07-01T06:41:54;17.03;;;9.10;;
20621;SDS011;10470;42.670;23.354;2022-07-01T06:44:20;14.23;;;9.93;;
20621;SDS011;10470;42.670;23.354;2022-07-01T06:46:46;13.90;;;9.10;;
20621;SDS011;10470;42.670;23.354;2022-07-01T06:49:12;9.87;;;8.87;;
20621;SDS011;10470;42.670;23.354;2022-07-01T06:51:37;14.27;;;10.53;;
20621;SDS011;10470;42.670;23.354;2022-07-01T06:54:03;16.23;;;9.47;;
20621;SDS011;10470;42.670;23.354;2022-07-01T06:56:29;15.47;;;8.97;;
20621;SDS011;10470;42.670;23.354;2022-07-01T06:58:54;14.03;;;8.50;;
20621;SDS011;10470;42.670;23.354;2022-07-01T07:01:20;10.77;;;8.67;;
20621;SDS011;10470;42.670;23.354;2022-07-01T07:03:46;11.37;;;8.77;;
20621;SDS011;10470;42.670;23.354;2022-07-01T07:06:11;13.77;;;9.37;;
20621;SDS011;10470;42.670;23.354;2022-07-01T07:08:37;14.57;;;9.10;;
20621;SDS011;10470;42.670;23.354;2022-07-01T07:11:03;12.80;;;8.80;;
20621;SDS011;10470;42.670;23.354;2022-07-01T07:13:29;19.00;;;9.63;;
20621;SDS011;10470;42.670;23.354;2022-07-01T07:15:54;15.77;;;9.27;;
20621;SDS011;10470;42.670;23.354;2022-07-01T07:18:20;13.63;;;8.90;;
20621;SDS011;10470;42.670;23.354;2022-07-01T07:20:46;14.80;;;8.70;;
20621;SDS011;10470;42.670;23.354;2022-07-01T07:23:15;14.67;;;9.13;;
20621;SDS011;10470;42.670;23.354;2022-07-01T07:25:41;11.77;;;8.63;;
20621;SDS011;10470;42.670;23.354;2022-07-01T07:28:07;12.73;;;8.50;;
20621;SDS011;10470;42.670;23.354;2022-07-01T07:30:32;10.07;;;8.10;;
20621;SDS011;10470;42.670;23.354;2022-07-01T07:32:58;13.30;;;8.67;;
20621;SDS011;10470;42.670;23.354;2022-07-01T07:35:24;11.00;;;7.63;;
20621;SDS011;10470;42.670;23.354;2022-07-01T07:37:49;11.43;;;8.10;;
20621;SDS011;10470;42.670;23.354;2022-07-01T07:40:15;10.60;;;8.07;;
20621;SDS011;10470;42.670;23.354;2022-07-01T07:42:43;12.00;;;7.77;;
20621;SDS011;10470;42.670;23.354;2022-07-01T07:45:11;9.67;;;7.77;;
20621;SDS011;10470;42.670;23.354;2022-07-01T07:47:39;15.43;;;8.30;;
20621;SDS011;10470;42.670;23.354;2022-07-01T07:50:07;12.20;;;8.40;;
20621;SDS011;10470;42.670;23.354;2022-07-01T07:52:34;12.37;;;9.20;;
20621;SDS011;10470;42.670;23.354;2022-07-01T07:54:59;12.53;;;8.20;;
20621;SDS011;10470;42.670;23.354;2022-07-01T07:57:25;13.20;;;7.60;;
20621;SDS011;10470;42.670;23.354;2022-07-01T07:59:51;13.70;;;8.73;;
20621;SDS011;10470;42.670;23.354;2022-07-01T08:02:16;13.73;;;7.53;;
20621;SDS011;10470;42.670;23.354;2022-07-01T08:04:42;15.03;;;8.07;;
20621;SDS011;10470;42.670;23.354;2022-07-01T08:07:07;14.40;;;8.83;;
20621;SDS011;10470;42.670;23.354;2022-07-01T08:09:33;11.67;;;8.27;;
20621;SDS011;10470;42.670;23.354;2022-07-01T08:12:00;13.67;;;7.93;;
20621;SDS011;10470;42.670;23.354;2022-07-01T08:14:26;13.73;;;7.57;;
20621;SDS011;10470;42.670;23.354;2022-07-01T08:16:51;14.27;;;8.80;;
20621;SDS011;10470;42.670;23.354;2022-07-01T08:19:17;14.57;;;7.47;;
20621;SDS011;10470;42.670;23.354;2022-07-01T08:21:42;12.60;;;7.80;;
20621;SDS011;10470;42.670;23.354;2022-07-01T08:24:08;9.40;;;7.17;;
20621;SDS011;10470;42.670;23.354;2022-07-01T08:26:33;10.83;;;8.57;;
20621;SDS011;10470;42.670;23.354;2022-07-01T08:28:59;15.10;;;8.87;;
20621;SDS011;10470;42.670;23.354;2022-07-01T08:31:24;11.97;;;7.17;;
20621;SDS011;10470;42.670;23.354;2022-07-01T08:33:49;9.87;;;6.93;;
20621;SDS011;10470;42.670;23.354;2022-07-01T08:36:15;13.40;;;7.50;;
20621;SDS011;10470;42.670;23.354;2022-07-01T08:38:41;12.80;;;7.83;;
20621;SDS011;10470;42.670;23.354;2022-07-01T08:41:06;9.47;;;6.73;;
20621;SDS011;10470;42.670;23.354;2022-07-01T08:43:32;14.10;;;6.93;;
20621;SDS011;10470;42.670;23.354;2022-07-01T08:46:01;9.27;;;6.63;;
20621;SDS011;10470;42.670;23.354;2022-07-01T08:48:28;9.37;;;6.73;;
20621;SDS011;10470;42.670;23.354;2022-07-01T08:50:54;10.03;;;6.10;;
20621;SDS011;10470;42.670;23.354;2022-07-01T08:53:19;9.00;;;6.13;;
20621;SDS011;10470;42.670;23.354;2022-07-01T08:55:45;8.67;;;6.30;;
20621;SDS011;10470;42.670;23.354;2022-07-01T08:58:29;9.40;;;6.17;;
20621;SDS011;10470;42.670;23.354;2022-07-01T09:01:11;8.00;;;6.60;;
20621;SDS011;10470;42.670;23.354;2022-07-01T09:03:37;11.97;;;6.57;;
20621;SDS011;10470;42.670;23.354;2022-07-01T09:06:03;8.57;;;6.70;;
20621;SDS011;10470;42.670;23.354;2022-07-01T09:08:43;11.00;;;6.93;;
20621;SDS011;10470;42.670;23.354;2022-07-01T09:13:43;11.20;;;6.67;;
20621;SDS011;10470;42.670;23.354;2022-07-01T09:16:15;11.03;;;6.60;;
20621;SDS011;10470;42.670;23.354;2022-07-01T09:19:01;11.17;;;6.67;;
20621;SDS011;10470;42.670;23.354;2022-07-01T09:21:29;9.80;;;5.90;;
20621;SDS011;10470;42.670;23.354;2022-07-01T09:23:55;11.47;;;6.30;;
20621;SDS011;10470;42.670;23.354;2022-07-01T09:26:27;8.77;;;5.93;;
20621;SDS011;10470;42.670;23.354;2022-07-01T09:28:53;10.60;;;6.10;;
20621;SDS011;10470;42.670;23.354;2022-07-01T09:31:20;8.77;;;6.20;;
20621;SDS011;10470;42.670;23.354;2022-07-01T09:33:47;13.17;;;5.87;;
20621;SDS011;10470;42.670;23.354;2022-07-01T09:36:27;8.03;;;5.07;;
20621;SDS011;10470;42.670;23.354;2022-07-01T09:38:53;6.53;;;4.70;;
20621;SDS011;10470;42.670;23.354;2022-07-01T09:41:19;9.10;;;4.90;;
20621;SDS011;10470;42.670;23.354;2022-07-01T09:43:48;5.67;;;4.47;;
20621;SDS011;10470;42.670;23.354;2022-07-01T09:46:14;4.73;;;4.20;;
20621;SDS011;10470;42.670;23.354;2022-07-01T09:51:05;11.93;;;5.20;;
20621;SDS011;10470;42.670;23.354;2022-07-01T09:53:32;7.03;;;4.77;;
20621;SDS011;10470;42.670;23.354;2022-07-01T09:55:58;10.27;;;4.90;;
20621;SDS011;10470;42.670;23.354;2022-07-01T09:58:24;10.03;;;4.87;;
20621;SDS011;10470;42.670;23.354;2022-07-01T10:00:51;11.50;;;5.70;;
20621;SDS011;10470;42.670;23.354;2022-07-01T10:03:19;7.23;;;5.13;;
20621;SDS011;10470;42.670;23.354;2022-07-01T10:08:32;6.23;;;5.37;;
20621;SDS011;10470;42.670;23.354;2022-07-01T10:11:24;7.10;;;4.87;;
20621;SDS011;10470;42.670;23.354;2022-07-01T10:14:00;8.20;;;5.97;;
20621;SDS011;10470;42.670;23.354;2022-07-01T10:16:28;6.77;;;5.17;;
20621;SDS011;10470;42.670;23.354;2022-07-01T10:18:55;10.63;;;5.43;;
20621;SDS011;10470;42.670;23.354;2022-07-01T10:21:30;13.17;;;10.77;;
20621;SDS011;10470;42.670;23.354;2022-07-01T10:24:12;7.63;;;6.20;;
20621;SDS011;10470;42.670;23.354;2022-07-01T10:26:39;7.90;;;5.40;;
20621;SDS011;10470;42.670;23.354;2022-07-01T10:29:17;9.40;;;6.10;;
20621;SDS011;10470;42.670;23.354;2022-07-01T10:32:01;9.90;;;6.53;;
20621;SDS011;10470;42.670;23.354;2022-07-01T10:34:48;14.07;;;5.80;;
20621;SDS011;10470;42.670;23.354;2022-07-01T10:37:15;9.33;;;6.53;;
20621;SDS011;10470;42.670;23.354;2022-07-01T10:40:03;8.48;;;6.15;;
20621;SDS011;10470;42.670;23.354;2022-07-01T10:42:29;11.57;;;6.40;;
20621;SDS011;10470;42.670;23.354;2022-07-01T10:44:59;9.40;;;6.35;;
20621;SDS011;10470;42.670;23.354;2022-07-01T10:47:27;4.27;;;3.87;;
20621;SDS011;10470;42.670;23.354;2022-07-01T10:49:54;6.50;;;4.40;;
20621;SDS011;10470;42.670;23.354;2022-07-01T10:52:21;5.87;;;4.80;;
20621;SDS011;10470;42.670;23.354;2022-07-01T10:54:47;5.67;;;4.43;;
20621;SDS011;10470;42.670;23.354;2022-07-01T10:57:19;7.30;;;4.60;;
20621;SDS011;10470;42.670;23.354;2022-07-01T10:59:53;5.87;;;4.30;;
20621;SDS011;10470;42.670;23.354;2022-07-01T11:02:37;5.72;;;4.40;;
20621;SDS011;10470;42.670;23.354;2022-07-01T11:05:07;7.43;;;4.28;;
20621;SDS011;10470;42.670;23.354;2022-07-01T11:07:34;7.97;;;4.80;;
20621;SDS011;10470;42.670;23.354;2022-07-01T11:10:02;5.00;;;4.60;;
20621;SDS011;10470;42.670;23.354;2022-07-01T11:12:30;6.70;;;4.55;;
20621;SDS011;10470;42.670;23.354;2022-07-01T11:14:57;4.97;;;4.57;;
20621;SDS011;10470;42.670;23.354;2022-07-01T11:17:24;6.35;;;4.38;;
20621;SDS011;10470;42.670;23.354;2022-07-01T11:19:57;5.20;;;4.70;;
20621;SDS011;10470;42.670;23.354;2022-07-01T11:22:26;5.63;;;4.22;;
20621;SDS011;10470;42.670;23.354;2022-07-01T11:24:53;6.95;;;4.90;;
20621;SDS011;10470;42.670;23.354;2022-07-01T11:27:23;5.68;;;4.57;;
20621;SDS011;10470;42.670;23.354;2022-07-01T11:29:56;5.88;;;4.53;;
20621;SDS011;10470;42.670;23.354;2022-07-01T11:32:26;5.00;;;4.57;;
20621;SDS011;10470;42.670;23.354;2022-07-01T11:34:54;7.65;;;4.45;;
20621;SDS011;10470;42.670;23.354;2022-07-01T11:37:19;4.90;;;4.47;;
20621;SDS011;10470;42.670;23.354;2022-07-01T11:42:33;4.80;;;4.30;;
20621;SDS011;10470;42.670;23.354;2022-07-01T11:44:59;9.65;;;4.88;;
20621;SDS011;10470;42.670;23.354;2022-07-01T11:47:25;6.60;;;4.45;;
20621;SDS011;10470;42.670;23.354;2022-07-01T11:49:51;6.57;;;4.47;;
20621;SDS011;10470;42.670;23.354;2022-07-01T11:52:17;4.85;;;4.50;;
20621;SDS011;10470;42.670;23.354;2022-07-01T11:54:46;8.15;;;4.75;;
20621;SDS011;10470;42.670;23.354;2022-07-01T11:57:17;5.43;;;4.47;;
20621;SDS011;10470;42.670;23.354;2022-07-01T11:59:43;4.45;;;4.05;;
20621;SDS011;10470;42.670;23.354;2022-07-01T12:02:12;5.45;;;4.60;;
20621;SDS011;10470;42.670;23.354;2022-07-01T12:04:39;4.57;;;4.15;;
20621;SDS011;10470;42.670;23.354;2022-07-01T12:07:08;4.53;;;4.10;;
20621;SDS011;10470;42.670;23.354;2022-07-01T12:09:35;5.15;;;4.07;;
20621;SDS011;10470;42.670;23.354;2022-07-01T12:12:01;5.85;;;3.90;;
20621;SDS011;10470;42.670;23.354;2022-07-01T12:14:29;4.60;;;4.03;;
20621;SDS011;10470;42.670;23.354;2022-07-01T12:16:57;5.72;;;4.38;;
20621;SDS011;10470;42.670;23.354;2022-07-01T12:19:27;5.30;;;4.07;;
20621;SDS011;10470;42.670;23.354;2022-07-01T12:21:54;3.53;;;3.33;;
20621;SDS011;10470;42.670;23.354;2022-07-01T12:24:25;4.00;;;3.60;;
20621;SDS011;10470;42.670;23.354;2022-07-01T12:26:52;4.03;;;3.63;;
20621;SDS011;10470;42.670;23.354;2022-07-01T12:32:13;4.35;;;4.05;;
20621;SDS011;10470;42.670;23.354;2022-07-01T12:34:47;4.18;;;3.83;;
20621;SDS011;10470;42.670;23.354;2022-07-01T12:37:25;4.80;;;3.65;;
20621;SDS011;10470;42.670;23.354;2022-07-01T12:40:00;4.20;;;3.83;;
20621;SDS011;10470;42.670;23.354;2022-07-01T12:42:32;4.50;;;3.97;;
20621;SDS011;10470;42.670;23.354;2022-07-01T12:45:03;4.15;;;3.72;;
20621;SDS011;10470;42.670;23.354;2022-07-01T12:47:35;3.70;;;3.40;;
20621;SDS011;10470;42.670;23.354;2022-07-01T12:55:37;6.45;;;4.50;;
20621;SDS011;10470;42.670;23.354;2022-07-01T12:58:10;5.43;;;4.35;;
20621;SDS011;10470;42.670;23.354;2022-07-01T13:00:38;5.35;;;4.90;;
20621;SDS011;10470;42.670;23.354;2022-07-01T13:03:05;7.50;;;4.90;;
20621;SDS011;10470;42.670;23.354;2022-07-01T13:05:32;7.85;;;4.72;;
20621;SDS011;10470;42.670;23.354;2022-07-01T13:07:59;5.88;;;4.80;;
20621;SDS011;10470;42.670;23.354;2022-07-01T13:10:25;5.40;;;4.95;;
20621;SDS011;10470;42.670;23.354;2022-07-01T13:12:51;5.05;;;4.40;;
20621;SDS011;10470;42.670;23.354;2022-07-01T13:15:18;5.40;;;4.93;;
20621;SDS011;10470;42.670;23.354;2022-07-01T13:17:44;5.82;;;4.88;;
20621;SDS011;10470;42.670;23.354;2022-07-01T13:20:11;7.45;;;4.57;;
20621;SDS011;10470;42.670;23.354;2022-07-01T13:22:37;5.00;;;4.60;;
20621;SDS011;10470;42.670;23.354;2022-07-01T13:25:03;7.22;;;5.03;;
20621;SDS011;10470;42.670;23.354;2022-07-01T13:27:29;6.25;;;5.65;;
20621;SDS011;10470;42.670;23.354;2022-07-01T13:29:55;5.63;;;4.50;;
20621;SDS011;10470;42.670;23.354;2022-07-01T13:32:21;5.03;;;4.57;;
20621;SDS011;10470;42.670;23.354;2022-07-01T13:34:47;5.75;;;4.50;;
20621;SDS011;10470;42.670;23.354;2022-07-01T13:37:12;5.65;;;4.85;;
20621;SDS011;10470;42.670;23.354;2022-07-01T13:39:38;5.97;;;5.10;;
20621;SDS011;10470;42.670;23.354;2022-07-01T13:42:04;5.72;;;4.90;;
20621;SDS011;10470;42.670;23.354;2022-07-01T13:44:30;5.72;;;5.30;;
20621;SDS011;10470;42.670;23.354;2022-07-01T13:46:55;5.47;;;4.47;;
20621;SDS011;10470;42.670;23.354;2022-07-01T13:49:21;4.93;;;4.53;;
20621;SDS011;10470;42.670;23.354;2022-07-01T13:51:49;5.70;;;5.20;;
20621;SDS011;10470;42.670;23.354;2022-07-01T13:54:15;6.25;;;4.97;;
20621;SDS011;10470;42.670;23.354;2022-07-01T13:56:40;6.10;;;5.00;;
20621;SDS011;10470;42.670;23.354;2022-07-01T13:59:06;5.53;;;4.93;;
20621;SDS011;10470;42.670;23.354;2022-07-01T14:01:33;5.95;;;5.00;;
20621;SDS011;10470;42.670;23.354;2022-07-01T14:04:00;7.15;;;5.15;;
20621;SDS011;10470;42.670;23.354;2022-07-01T14:06:26;8.70;;;5.18;;
20621;SDS011;10470;42.670;23.354;2022-07-01T14:08:51;6.40;;;5.32;;
20621;SDS011;10470;42.670;23.354;2022-07-01T14:11:17;5.60;;;5.10;;
20621;SDS011;10470;42.670;23.354;2022-07-01T14:13:43;6.03;;;5.53;;
20621;SDS011;10470;42.670;23.354;2022-07-01T14:16:08;5.13;;;4.82;;
20621;SDS011;10470;42.670;23.354;2022-07-01T14:18:34;5.75;;;4.95;;
20621;SDS011;10470;42.670;23.354;2022-07-01T14:21:01;5.70;;;5.20;;
20621;SDS011;10470;42.670;23.354;2022-07-01T14:23:28;5.63;;;5.10;;
20621;SDS011;10470;42.670;23.354;2022-07-01T14:25:54;7.00;;;4.70;;
20621;SDS011;10470;42.670;23.354;2022-07-01T14:28:19;4.88;;;4.47;;
20621;SDS011;10470;42.670;23.354;2022-07-01T14:30:45;5.25;;;4.85;;
20621;SDS011;10470;42.670;23.354;2022-07-01T14:33:11;7.05;;;4.90;;
20621;SDS011;10470;42.670;23.354;2022-07-01T14:35:37;6.60;;;4.70;;
20621;SDS011;10470;42.670;23.354;2022-07-01T14:38:03;8.70;;;5.57;;
20621;SDS011;10470;42.670;23.354;2022-07-01T14:40:30;7.45;;;4.90;;
20621;SDS011;10470;42.670;23.354;2022-07-01T14:42:57;5.20;;;4.80;;
20621;SDS011;10470;42.670;23.354;2022-07-01T14:45:22;7.93;;;4.93;;
20621;SDS011;10470;42.670;23.354;2022-07-01T14:47:48;5.43;;;5.03;;